sensor_id;sensor_type;location;lat;lon;timestamp;pressure;altitude;pressure_sealevel;temperature
67822;BMP180;54434;50.096;20.082;2022-12-07T00:01:53;98333.20;;;2.50
67822;BMP180;54434;50.096;20.082;2022-12-07T00:04:29;98336.40;;;2.50
67822;BMP180;54434;50.096;20.082;2022-12-07T00:07:05;98332.40;;;2.50
67822;BMP180;54434;50.096;20.082;2022-12-07T00:09:41;98329.20;;;2.50
67822;BMP180;54434;50.096;20.082;2022-12-07T00:12:17;98333.40;;;2.50
67822;BMP180;54434;50.096;20.082;2022-12-07T00:14:53;98335.40;;;2.50
67822;BMP180;54434;50.096;20.082;2022-12-07T00:17:29;98331.40;;;2.50
67822;BMP180;54434;50.096;20.082;2022-12-07T00:20:08;98335.40;;;2.50
67822;BMP180;54434;50.096;20.082;2022-12-07T00:22:44;98331.40;;;2.48
67822;BMP180;54434;50.096;20.082;2022-12-07T00:25:20;98329.40;;;2.42
67822;BMP180;54434;50.096;20.082;2022-12-07T00:27:56;98327.40;;;2.40
67822;BMP180;54434;50.096;20.082;2022-12-07T00:30:32;98327.00;;;2.40
67822;BMP180;54434;50.096;20.082;2022-12-07T00:33:08;98328.60;;;2.40
67822;BMP180;54434;50.096;20.082;2022-12-07T00:35:44;98325.00;;;2.40
67822;BMP180;54434;50.096;20.082;2022-12-07T00:38:20;98327.80;;;2.40
67822;BMP180;54434;50.096;20.082;2022-12-07T00:41:03;98327.60;;;2.40
67822;BMP180;54434;50.096;20.082;2022-12-07T00:43:39;98324.40;;;2.40
67822;BMP180;54434;50.096;20.082;2022-12-07T00:46:17;98321.40;;;2.40
67822;BMP180;54434;50.096;20.082;2022-12-07T00:48:55;98322.00;;;2.40
67822;BMP180;54434;50.096;20.082;2022-12-07T00:51:31;98319.00;;;2.40
67822;BMP180;54434;50.096;20.082;2022-12-07T00:54:07;98315.60;;;2.40
67822;BMP180;54434;50.096;20.082;2022-12-07T00:56:43;98320.40;;;2.36
67822;BMP180;54434;50.096;20.082;2022-12-07T00:59:19;98319.40;;;2.32
67822;BMP180;54434;50.096;20.082;2022-12-07T01:01:55;98319.80;;;2.34
67822;BMP180;54434;50.096;20.082;2022-12-07T01:04:32;98318.80;;;2.40
67822;BMP180;54434;50.096;20.082;2022-12-07T01:07:08;98319.40;;;2.40
67822;BMP180;54434;50.096;20.082;2022-12-07T01:09:45;98313.80;;;2.40
67822;BMP180;54434;50.096;20.082;2022-12-07T01:12:21;98312.00;;;2.40
67822;BMP180;54434;50.096;20.082;2022-12-07T01:14:57;98306.60;;;2.32
67822;BMP180;54434;50.096;20.082;2022-12-07T01:17:34;98308.20;;;2.32
67822;BMP180;54434;50.096;20.082;2022-12-07T01:20:13;98309.00;;;2.30
67822;BMP180;54434;50.096;20.082;2022-12-07T01:22:50;98307.40;;;2.30
67822;BMP180;54434;50.096;20.082;2022-12-07T01:25:26;98307.40;;;2.30
67822;BMP180;54434;50.096;20.082;2022-12-07T01:28:02;98305.80;;;2.30
67822;BMP180;54434;50.096;20.082;2022-12-07T01:30:37;98305.40;;;2.30
67822;BMP180;54434;50.096;20.082;2022-12-07T01:33:13;98303.00;;;2.30
67822;BMP180;54434;50.096;20.082;2022-12-07T01:35:49;98301.60;;;2.30
67822;BMP180;54434;50.096;20.082;2022-12-07T01:38:25;98304.40;;;2.30
67822;BMP180;54434;50.096;20.082;2022-12-07T01:41:02;98302.20;;;2.30
67822;BMP180;54434;50.096;20.082;2022-12-07T01:44:15;98298.20;;;2.30
67822;BMP180;54434;50.096;20.082;2022-12-07T01:46:51;98292.20;;;2.34
67822;BMP180;54434;50.096;20.082;2022-12-07T01:49:35;98296.40;;;2.34
67822;BMP180;54434;50.096;20.082;2022-12-07T01:52:20;98300.80;;;2.40
67822;BMP180;54434;50.096;20.082;2022-12-07T01:55:03;98297.80;;;2.36
67822;BMP180;54434;50.096;20.082;2022-12-07T01:57:41;98294.40;;;2.40
67822;BMP180;54434;50.096;20.082;2022-12-07T02:00:19;98296.00;;;2.40
67822;BMP180;54434;50.096;20.082;2022-12-07T02:03:03;98298.20;;;2.40
67822;BMP180;54434;50.096;20.082;2022-12-07T02:05:44;98299.40;;;2.40
67822;BMP180;54434;50.096;20.082;2022-12-07T02:08:21;98300.40;;;2.40
67822;BMP180;54434;50.096;20.082;2022-12-07T02:10:58;98297.60;;;2.40
67822;BMP180;54434;50.096;20.082;2022-12-07T02:13:38;98296.80;;;2.40
67822;BMP180;54434;50.096;20.082;2022-12-07T02:16:27;98292.00;;;2.40
67822;BMP180;54434;50.096;20.082;2022-12-07T02:22:54;98288.00;;;2.32
67822;BMP180;54434;50.096;20.082;2022-12-07T02:26:00;98292.00;;;2.30
67822;BMP180;54434;50.096;20.082;2022-12-07T02:28:56;98291.20;;;2.30
67822;BMP180;54434;50.096;20.082;2022-12-07T02:31:38;98290.00;;;2.22
67822;BMP180;54434;50.096;20.082;2022-12-07T02:34:28;98287.20;;;2.20
67822;BMP180;54434;50.096;20.082;2022-12-07T02:37:39;98287.60;;;2.20
67822;BMP180;54434;50.096;20.082;2022-12-07T02:40:25;98286.80;;;2.20
67822;BMP180;54434;50.096;20.082;2022-12-07T02:43:10;98289.40;;;2.20
67822;BMP180;54434;50.096;20.082;2022-12-07T02:45:49;98281.40;;;2.20
67822;BMP180;54434;50.096;20.082;2022-12-07T02:48:27;98285.20;;;2.18
67822;BMP180;54434;50.096;20.082;2022-12-07T02:51:04;98289.20;;;2.16
67822;BMP180;54434;50.096;20.082;2022-12-07T02:53:42;98285.00;;;2.10
67822;BMP180;54434;50.096;20.082;2022-12-07T02:56:38;98283.80;;;2.10
67822;BMP180;54434;50.096;20.082;2022-12-07T02:59:36;98282.60;;;2.10
67822;BMP180;54434;50.096;20.082;2022-12-07T03:02:27;98276.80;;;2.10
67822;BMP180;54434;50.096;20.082;2022-12-07T03:08:21;98267.80;;;2.10
67822;BMP180;54434;50.096;20.082;2022-12-07T03:11:04;98263.40;;;2.10
67822;BMP180;54434;50.096;20.082;2022-12-07T03:13:48;98263.40;;;2.04
67822;BMP180;54434;50.096;20.082;2022-12-07T03:16:30;98265.20;;;2.00
67822;BMP180;54434;50.096;20.082;2022-12-07T03:19:13;98267.80;;;2.00
67822;BMP180;54434;50.096;20.082;2022-12-07T03:21:59;98270.20;;;2.00
67822;BMP180;54434;50.096;20.082;2022-12-07T03:24:45;98271.00;;;2.00
67822;BMP180;54434;50.096;20.082;2022-12-07T03:27:27;98268.60;;;2.00
67822;BMP180;54434;50.096;20.082;2022-12-07T03:30:06;98267.40;;;2.00
67822;BMP180;54434;50.096;20.082;2022-12-07T03:32:47;98264.60;;;1.90
67822;BMP180;54434;50.096;20.082;2022-12-07T03:35:33;98262.80;;;1.90
67822;BMP180;54434;50.096;20.082;2022-12-07T03:38:19;98254.80;;;1.90
67822;BMP180;54434;50.096;20.082;2022-12-07T03:41:06;98250.60;;;1.90
67822;BMP180;54434;50.096;20.082;2022-12-07T03:43:45;98253.80;;;1.90
67822;BMP180;54434;50.096;20.082;2022-12-07T03:46:37;98251.60;;;1.90
67822;BMP180;54434;50.096;20.082;2022-12-07T03:49:25;98248.80;;;1.90
67822;BMP180;54434;50.096;20.082;2022-12-07T03:52:11;98244.60;;;1.90
67822;BMP180;54434;50.096;20.082;2022-12-07T03:54:55;98243.00;;;1.90
67822;BMP180;54434;50.096;20.082;2022-12-07T03:57:36;98241.80;;;1.90
67822;BMP180;54434;50.096;20.082;2022-12-07T04:00:16;98236.60;;;1.90
67822;BMP180;54434;50.096;20.082;2022-12-07T04:02:54;98235.00;;;1.90
67822;BMP180;54434;50.096;20.082;2022-12-07T04:05:31;98235.60;;;1.90
67822;BMP180;54434;50.096;20.082;2022-12-07T04:08:07;98236.20;;;1.90
67822;BMP180;54434;50.096;20.082;2022-12-07T04:10:43;98234.60;;;1.90
67822;BMP180;54434;50.096;20.082;2022-12-07T04:13:19;98241.20;;;1.90
67822;BMP180;54434;50.096;20.082;2022-12-07T04:15:55;98240.40;;;1.90
67822;BMP180;54434;50.096;20.082;2022-12-07T04:18:31;98240.60;;;1.90
67822;BMP180;54434;50.096;20.082;2022-12-07T04:21:07;98238.60;;;1.90
67822;BMP180;54434;50.096;20.082;2022-12-07T04:23:43;98238.20;;;1.90
67822;BMP180;54434;50.096;20.082;2022-12-07T04:26:19;98236.60;;;1.90
67822;BMP180;54434;50.096;20.082;2022-12-07T04:28:55;98240.60;;;1.90
67822;BMP180;54434;50.096;20.082;2022-12-07T04:31:31;98240.60;;;1.98
67822;BMP180;54434;50.096;20.082;2022-12-07T04:34:07;98239.60;;;2.00
67822;BMP180;54434;50.096;20.082;2022-12-07T04:36:44;98237.00;;;2.00
67822;BMP180;54434;50.096;20.082;2022-12-07T04:39:26;98230.00;;;2.00
67822;BMP180;54434;50.096;20.082;2022-12-07T04:42:03;98229.20;;;2.02
67822;BMP180;54434;50.096;20.082;2022-12-07T04:44:40;98226.00;;;2.00
67822;BMP180;54434;50.096;20.082;2022-12-07T04:47:16;98222.40;;;2.00
67822;BMP180;54434;50.096;20.082;2022-12-07T04:49:51;98226.00;;;2.00
67822;BMP180;54434;50.096;20.082;2022-12-07T04:52:28;98228.40;;;2.00
67822;BMP180;54434;50.096;20.082;2022-12-07T04:55:05;98223.20;;;2.00
67822;BMP180;54434;50.096;20.082;2022-12-07T04:57:41;98225.80;;;2.00
67822;BMP180;54434;50.096;20.082;2022-12-07T05:00:18;98228.40;;;2.00
67822;BMP180;54434;50.096;20.082;2022-12-07T05:02:54;98227.00;;;2.00
67822;BMP180;54434;50.096;20.082;2022-12-07T05:05:30;98228.60;;;2.00
67822;BMP180;54434;50.096;20.082;2022-12-07T05:08:06;98227.00;;;2.00
67822;BMP180;54434;50.096;20.082;2022-12-07T05:10:42;98225.20;;;2.00
67822;BMP180;54434;50.096;20.082;2022-12-07T05:13:18;98219.40;;;2.00
67822;BMP180;54434;50.096;20.082;2022-12-07T05:15:54;98220.00;;;2.00
67822;BMP180;54434;50.096;20.082;2022-12-07T05:18:30;98218.20;;;2.00
67822;BMP180;54434;50.096;20.082;2022-12-07T05:21:06;98221.00;;;2.00
67822;BMP180;54434;50.096;20.082;2022-12-07T05:23:42;98223.80;;;2.00
67822;BMP180;54434;50.096;20.082;2022-12-07T05:26:17;98224.60;;;2.00
67822;BMP180;54434;50.096;20.082;2022-12-07T05:28:56;98227.60;;;2.00
67822;BMP180;54434;50.096;20.082;2022-12-07T05:31:32;98228.20;;;2.00
67822;BMP180;54434;50.096;20.082;2022-12-07T05:34:09;98229.80;;;2.00
67822;BMP180;54434;50.096;20.082;2022-12-07T05:36:45;98230.20;;;2.00
67822;BMP180;54434;50.096;20.082;2022-12-07T05:39:21;98228.60;;;2.00
67822;BMP180;54434;50.096;20.082;2022-12-07T05:41:57;98231.40;;;2.00
67822;BMP180;54434;50.096;20.082;2022-12-07T05:44:49;98235.80;;;2.02
67822;BMP180;54434;50.096;20.082;2022-12-07T05:47:25;98238.00;;;2.04
67822;BMP180;54434;50.096;20.082;2022-12-07T05:50:01;98240.60;;;2.00
67822;BMP180;54434;50.096;20.082;2022-12-07T05:52:37;98232.20;;;2.00
67822;BMP180;54434;50.096;20.082;2022-12-07T05:55:14;98231.20;;;2.00
67822;BMP180;54434;50.096;20.082;2022-12-07T05:57:50;98232.60;;;2.00
67822;BMP180;54434;50.096;20.082;2022-12-07T06:00:39;98240.00;;;2.00
67822;BMP180;54434;50.096;20.082;2022-12-07T06:03:20;98244.40;;;2.00
67822;BMP180;54434;50.096;20.082;2022-12-07T06:05:56;98238.60;;;2.00
67822;BMP180;54434;50.096;20.082;2022-12-07T06:08:32;98239.20;;;2.00
67822;BMP180;54434;50.096;20.082;2022-12-07T06:11:08;98241.20;;;2.00
67822;BMP180;54434;50.096;20.082;2022-12-07T06:14:01;98239.40;;;2.00
67822;BMP180;54434;50.096;20.082;2022-12-07T06:16:37;98239.80;;;2.00
67822;BMP180;54434;50.096;20.082;2022-12-07T06:19:14;98240.00;;;1.96
67822;BMP180;54434;50.096;20.082;2022-12-07T06:21:50;98241.80;;;1.90
67822;BMP180;54434;50.096;20.082;2022-12-07T06:24:26;98237.80;;;1.90
67822;BMP180;54434;50.096;20.082;2022-12-07T06:27:02;98240.80;;;1.90
67822;BMP180;54434;50.096;20.082;2022-12-07T06:29:39;98242.00;;;1.90
67822;BMP180;54434;50.096;20.082;2022-12-07T06:32:15;98241.60;;;1.90
67822;BMP180;54434;50.096;20.082;2022-12-07T06:34:51;98245.60;;;1.90
67822;BMP180;54434;50.096;20.082;2022-12-07T06:37:29;98242.60;;;1.92
67822;BMP180;54434;50.096;20.082;2022-12-07T06:40:07;98245.20;;;1.98
67822;BMP180;54434;50.096;20.082;2022-12-07T06:42:43;98242.80;;;1.96
67822;BMP180;54434;50.096;20.082;2022-12-07T06:45:20;98245.80;;;1.96
67822;BMP180;54434;50.096;20.082;2022-12-07T06:47:56;98251.20;;;1.98
67822;BMP180;54434;50.096;20.082;2022-12-07T06:50:31;98250.00;;;1.92
67822;BMP180;54434;50.096;20.082;2022-12-07T06:53:07;98252.40;;;1.94
67822;BMP180;54434;50.096;20.082;2022-12-07T06:55:44;98254.00;;;1.90
67822;BMP180;54434;50.096;20.082;2022-12-07T06:58:19;98254.20;;;1.94
67822;BMP180;54434;50.096;20.082;2022-12-07T07:00:56;98256.80;;;2.00
67822;BMP180;54434;50.096;20.082;2022-12-07T07:03:31;98257.40;;;2.00
67822;BMP180;54434;50.096;20.082;2022-12-07T07:06:09;98259.20;;;2.00
67822;BMP180;54434;50.096;20.082;2022-12-07T07:08:45;98261.80;;;2.00
67822;BMP180;54434;50.096;20.082;2022-12-07T07:11:21;98263.80;;;2.00
67822;BMP180;54434;50.096;20.082;2022-12-07T07:13:57;98262.00;;;2.00
67822;BMP180;54434;50.096;20.082;2022-12-07T07:16:36;98259.60;;;2.00
67822;BMP180;54434;50.096;20.082;2022-12-07T07:19:12;98266.20;;;2.10
67822;BMP180;54434;50.096;20.082;2022-12-07T07:21:48;98265.80;;;2.10
67822;BMP180;54434;50.096;20.082;2022-12-07T07:24:24;98262.80;;;2.10
67822;BMP180;54434;50.096;20.082;2022-12-07T07:27:00;98263.00;;;2.10
67822;BMP180;54434;50.096;20.082;2022-12-07T07:29:36;98258.80;;;2.10
67822;BMP180;54434;50.096;20.082;2022-12-07T07:32:12;98260.60;;;2.10
67822;BMP180;54434;50.096;20.082;2022-12-07T07:34:48;98264.20;;;2.10
67822;BMP180;54434;50.096;20.082;2022-12-07T07:37:26;98266.40;;;2.10
67822;BMP180;54434;50.096;20.082;2022-12-07T07:40:02;98271.20;;;2.10
67822;BMP180;54434;50.096;20.082;2022-12-07T07:42:39;98268.80;;;2.10
67822;BMP180;54434;50.096;20.082;2022-12-07T07:45:15;98266.40;;;2.10
67822;BMP180;54434;50.096;20.082;2022-12-07T07:47:51;98267.60;;;2.00
67822;BMP180;54434;50.096;20.082;2022-12-07T07:50:27;98261.20;;;2.00
67822;BMP180;54434;50.096;20.082;2022-12-07T07:53:03;98261.80;;;2.00
67822;BMP180;54434;50.096;20.082;2022-12-07T07:55:39;98263.80;;;2.00
67822;BMP180;54434;50.096;20.082;2022-12-07T07:58:15;98260.20;;;2.06
67822;BMP180;54434;50.096;20.082;2022-12-07T08:00:51;98264.00;;;2.10
67822;BMP180;54434;50.096;20.082;2022-12-07T08:03:27;98263.40;;;2.10
67822;BMP180;54434;50.096;20.082;2022-12-07T08:06:05;98262.00;;;2.20
67822;BMP180;54434;50.096;20.082;2022-12-07T08:08:41;98261.20;;;2.20
67822;BMP180;54434;50.096;20.082;2022-12-07T08:11:17;98268.40;;;2.20
67822;BMP180;54434;50.096;20.082;2022-12-07T08:13:53;98269.00;;;2.30
67822;BMP180;54434;50.096;20.082;2022-12-07T08:16:29;98270.00;;;2.30
67822;BMP180;54434;50.096;20.082;2022-12-07T08:19:07;98272.20;;;2.30
67822;BMP180;54434;50.096;20.082;2022-12-07T08:21:43;98284.40;;;2.40
67822;BMP180;54434;50.096;20.082;2022-12-07T08:24:19;98288.80;;;2.40
67822;BMP180;54434;50.096;20.082;2022-12-07T08:26:55;98287.60;;;2.40
67822;BMP180;54434;50.096;20.082;2022-12-07T08:29:31;98284.40;;;2.40
67822;BMP180;54434;50.096;20.082;2022-12-07T08:32:07;98284.80;;;2.40
67822;BMP180;54434;50.096;20.082;2022-12-07T08:34:44;98288.00;;;2.40
67822;BMP180;54434;50.096;20.082;2022-12-07T08:37:20;98290.60;;;2.40
67822;BMP180;54434;50.096;20.082;2022-12-07T08:39:56;98291.60;;;2.42
67822;BMP180;54434;50.096;20.082;2022-12-07T08:42:32;98291.20;;;2.40
67822;BMP180;54434;50.096;20.082;2022-12-07T08:45:16;98293.60;;;2.40
67822;BMP180;54434;50.096;20.082;2022-12-07T08:48:08;98293.80;;;2.40
67822;BMP180;54434;50.096;20.082;2022-12-07T08:50:45;98291.60;;;2.48
67822;BMP180;54434;50.096;20.082;2022-12-07T08:53:23;98296.60;;;2.50
67822;BMP180;54434;50.096;20.082;2022-12-07T08:56:00;98296.40;;;2.50
67822;BMP180;54434;50.096;20.082;2022-12-07T08:58:37;98302.80;;;2.58
67822;BMP180;54434;50.096;20.082;2022-12-07T09:01:14;98300.80;;;2.60
67822;BMP180;54434;50.096;20.082;2022-12-07T09:03:50;98303.00;;;2.60
67822;BMP180;54434;50.096;20.082;2022-12-07T09:06:26;98303.00;;;2.70
67822;BMP180;54434;50.096;20.082;2022-12-07T09:09:04;98302.20;;;2.70
67822;BMP180;54434;50.096;20.082;2022-12-07T09:11:41;98302.80;;;2.72
67822;BMP180;54434;50.096;20.082;2022-12-07T09:14:19;98295.80;;;2.80
67822;BMP180;54434;50.096;20.082;2022-12-07T09:16:56;98303.40;;;2.80
67822;BMP180;54434;50.096;20.082;2022-12-07T09:19:41;98306.00;;;2.80
67822;BMP180;54434;50.096;20.082;2022-12-07T09:22:17;98304.80;;;2.82
67822;BMP180;54434;50.096;20.082;2022-12-07T09:24:54;98305.40;;;2.90
67822;BMP180;54434;50.096;20.082;2022-12-07T09:27:30;98305.00;;;2.90
67822;BMP180;54434;50.096;20.082;2022-12-07T09:30:08;98301.80;;;2.90
67822;BMP180;54434;50.096;20.082;2022-12-07T09:32:44;98302.40;;;2.90
67822;BMP180;54434;50.096;20.082;2022-12-07T09:35:21;98299.80;;;2.90
67822;BMP180;54434;50.096;20.082;2022-12-07T09:37:57;98297.20;;;2.90
67822;BMP180;54434;50.096;20.082;2022-12-07T09:40:34;98290.40;;;2.90
67822;BMP180;54434;50.096;20.082;2022-12-07T09:43:20;98296.00;;;2.90
67822;BMP180;54434;50.096;20.082;2022-12-07T09:45:58;98292.80;;;2.90
67822;BMP180;54434;50.096;20.082;2022-12-07T09:48:37;98290.60;;;2.90
67822;BMP180;54434;50.096;20.082;2022-12-07T09:51:20;98286.00;;;2.90
67822;BMP180;54434;50.096;20.082;2022-12-07T09:54:01;98284.00;;;3.00
67822;BMP180;54434;50.096;20.082;2022-12-07T09:56:38;98286.20;;;3.00
67822;BMP180;54434;50.096;20.082;2022-12-07T09:59:20;98290.80;;;3.00
67822;BMP180;54434;50.096;20.082;2022-12-07T10:01:56;98296.20;;;3.10
67822;BMP180;54434;50.096;20.082;2022-12-07T10:04:53;98297.40;;;3.10
67822;BMP180;54434;50.096;20.082;2022-12-07T10:07:29;98297.20;;;3.10
67822;BMP180;54434;50.096;20.082;2022-12-07T10:10:15;98293.20;;;3.10
67822;BMP180;54434;50.096;20.082;2022-12-07T10:13:06;98292.00;;;3.12
67822;BMP180;54434;50.096;20.082;2022-12-07T10:15:54;98291.80;;;3.20
67822;BMP180;54434;50.096;20.082;2022-12-07T10:18:40;98286.80;;;3.20
67822;BMP180;54434;50.096;20.082;2022-12-07T10:21:19;98288.80;;;3.28
67822;BMP180;54434;50.096;20.082;2022-12-07T10:24:16;98284.60;;;3.30
67822;BMP180;54434;50.096;20.082;2022-12-07T10:26:55;98285.40;;;3.30
67822;BMP180;54434;50.096;20.082;2022-12-07T10:29:38;98280.20;;;3.30
67822;BMP180;54434;50.096;20.082;2022-12-07T10:32:36;98274.20;;;3.30
67822;BMP180;54434;50.096;20.082;2022-12-07T10:35:29;98278.80;;;3.30
67822;BMP180;54434;50.096;20.082;2022-12-07T10:38:18;98280.00;;;3.30
67822;BMP180;54434;50.096;20.082;2022-12-07T10:41:06;98272.20;;;3.30
67822;BMP180;54434;50.096;20.082;2022-12-07T10:43:52;98271.00;;;3.30
67822;BMP180;54434;50.096;20.082;2022-12-07T10:47:12;98269.60;;;3.20
67822;BMP180;54434;50.096;20.082;2022-12-07T10:50:27;98265.00;;;3.20
67822;BMP180;54434;50.096;20.082;2022-12-07T10:53:44;98266.20;;;3.20
67822;BMP180;54434;50.096;20.082;2022-12-07T10:56:54;98262.80;;;3.20
67822;BMP180;54434;50.096;20.082;2022-12-07T11:00:02;98260.40;;;3.20
67822;BMP180;54434;50.096;20.082;2022-12-07T11:06:01;98257.60;;;3.20
67822;BMP180;54434;50.096;20.082;2022-12-07T11:09:04;98253.80;;;3.30
67822;BMP180;54434;50.096;20.082;2022-12-07T11:11:52;98247.00;;;3.30
67822;BMP180;54434;50.096;20.082;2022-12-07T11:14:39;98242.20;;;3.30
67822;BMP180;54434;50.096;20.082;2022-12-07T11:17:24;98245.80;;;3.36
67822;BMP180;54434;50.096;20.082;2022-12-07T11:20:29;98249.80;;;3.40
67822;BMP180;54434;50.096;20.082;2022-12-07T11:23:24;98245.00;;;3.40
67822;BMP180;54434;50.096;20.082;2022-12-07T11:26:17;98243.00;;;3.40
67822;BMP180;54434;50.096;20.082;2022-12-07T11:29:24;98236.80;;;3.40
67822;BMP180;54434;50.096;20.082;2022-12-07T11:32:17;98236.20;;;3.46
67822;BMP180;54434;50.096;20.082;2022-12-07T11:35:11;98235.20;;;3.50
67822;BMP180;54434;50.096;20.082;2022-12-07T11:37:56;98236.80;;;3.50
67822;BMP180;54434;50.096;20.082;2022-12-07T11:40:35;98231.00;;;3.50
67822;BMP180;54434;50.096;20.082;2022-12-07T11:43:24;98231.20;;;3.50
67822;BMP180;54434;50.096;20.082;2022-12-07T11:46:10;98230.80;;;3.60
67822;BMP180;54434;50.096;20.082;2022-12-07T11:48:54;98226.20;;;3.60
67822;BMP180;54434;50.096;20.082;2022-12-07T11:51:40;98226.80;;;3.70
67822;BMP180;54434;50.096;20.082;2022-12-07T11:54:26;98227.40;;;3.90
67822;BMP180;54434;50.096;20.082;2022-12-07T11:57:17;98228.80;;;4.00
67822;BMP180;54434;50.096;20.082;2022-12-07T12:00:04;98218.80;;;4.10
67822;BMP180;54434;50.096;20.082;2022-12-07T12:02:48;98221.20;;;4.20
67822;BMP180;54434;50.096;20.082;2022-12-07T12:05:28;98215.80;;;4.20
67822;BMP180;54434;50.096;20.082;2022-12-07T12:08:21;98217.40;;;4.30
67822;BMP180;54434;50.096;20.082;2022-12-07T12:11:44;98213.00;;;4.30
67822;BMP180;54434;50.096;20.082;2022-12-07T12:14:44;98205.40;;;4.30
67822;BMP180;54434;50.096;20.082;2022-12-07T12:18:12;98211.60;;;4.30
67822;BMP180;54434;50.096;20.082;2022-12-07T12:20:57;98205.40;;;4.30
67822;BMP180;54434;50.096;20.082;2022-12-07T12:23:45;98199.20;;;4.30
67822;BMP180;54434;50.096;20.082;2022-12-07T12:26:25;98201.80;;;4.30
67822;BMP180;54434;50.096;20.082;2022-12-07T12:29:06;98198.40;;;4.40
67822;BMP180;54434;50.096;20.082;2022-12-07T12:31:46;98199.40;;;4.48
67822;BMP180;54434;50.096;20.082;2022-12-07T12:34:56;98190.80;;;4.50
67822;BMP180;54434;50.096;20.082;2022-12-07T12:37:53;98193.60;;;4.54
67822;BMP180;54434;50.096;20.082;2022-12-07T12:40:48;98188.20;;;4.60
67822;BMP180;54434;50.096;20.082;2022-12-07T12:43:53;98189.00;;;4.60
67822;BMP180;54434;50.096;20.082;2022-12-07T12:46:53;98184.40;;;4.60
67822;BMP180;54434;50.096;20.082;2022-12-07T12:49:43;98180.00;;;4.60
67822;BMP180;54434;50.096;20.082;2022-12-07T12:53:16;98183.60;;;4.52
67822;BMP180;54434;50.096;20.082;2022-12-07T12:56:38;98182.60;;;4.50
67822;BMP180;54434;50.096;20.082;2022-12-07T12:59:32;98183.40;;;4.50
67822;BMP180;54434;50.096;20.082;2022-12-07T13:02:24;98183.00;;;4.48
67822;BMP180;54434;50.096;20.082;2022-12-07T13:05:16;98186.60;;;4.40
67822;BMP180;54434;50.096;20.082;2022-12-07T13:08:14;98192.00;;;4.40
67822;BMP180;54434;50.096;20.082;2022-12-07T13:10:53;98192.40;;;4.30
67822;BMP180;54434;50.096;20.082;2022-12-07T13:13:37;98195.00;;;4.30
67822;BMP180;54434;50.096;20.082;2022-12-07T13:16:43;98195.00;;;4.20
67822;BMP180;54434;50.096;20.082;2022-12-07T13:20:00;98194.80;;;4.20
67822;BMP180;54434;50.096;20.082;2022-12-07T13:23:01;98188.00;;;4.10
67822;BMP180;54434;50.096;20.082;2022-12-07T13:25:49;98178.20;;;4.10
67822;BMP180;54434;50.096;20.082;2022-12-07T13:28:35;98177.80;;;4.10
67822;BMP180;54434;50.096;20.082;2022-12-07T13:31:37;98178.60;;;4.00
67822;BMP180;54434;50.096;20.082;2022-12-07T13:34:36;98180.40;;;4.00
67822;BMP180;54434;50.096;20.082;2022-12-07T13:37:23;98186.80;;;4.00
67822;BMP180;54434;50.096;20.082;2022-12-07T13:40:17;98189.40;;;3.94
67822;BMP180;54434;50.096;20.082;2022-12-07T13:43:03;98190.00;;;3.90
67822;BMP180;54434;50.096;20.082;2022-12-07T13:45:42;98194.80;;;3.88
67822;BMP180;54434;50.096;20.082;2022-12-07T13:48:32;98201.60;;;3.80
67822;BMP180;54434;50.096;20.082;2022-12-07T13:51:22;98198.80;;;3.70
67822;BMP180;54434;50.096;20.082;2022-12-07T13:54:11;98201.40;;;3.60
67822;BMP180;54434;50.096;20.082;2022-12-07T13:56:51;98207.80;;;3.56
67822;BMP180;54434;50.096;20.082;2022-12-07T13:59:29;98212.60;;;3.50
67822;BMP180;54434;50.096;20.082;2022-12-07T14:02:25;98206.80;;;3.50
67822;BMP180;54434;50.096;20.082;2022-12-07T14:05:23;98208.00;;;3.40
67822;BMP180;54434;50.096;20.082;2022-12-07T14:08:03;98212.00;;;3.40
67822;BMP180;54434;50.096;20.082;2022-12-07T14:10:53;98204.80;;;3.40
67822;BMP180;54434;50.096;20.082;2022-12-07T14:13:35;98207.60;;;3.40
67822;BMP180;54434;50.096;20.082;2022-12-07T14:16:29;98212.80;;;3.30
67822;BMP180;54434;50.096;20.082;2022-12-07T14:19:40;98211.60;;;3.30
67822;BMP180;54434;50.096;20.082;2022-12-07T14:22:32;98212.00;;;3.30
67822;BMP180;54434;50.096;20.082;2022-12-07T14:25:25;98213.80;;;3.20
67822;BMP180;54434;50.096;20.082;2022-12-07T14:28:03;98208.20;;;3.20
67822;BMP180;54434;50.096;20.082;2022-12-07T14:30:39;98204.20;;;3.10
67822;BMP180;54434;50.096;20.082;2022-12-07T14:33:17;98209.80;;;3.00
67822;BMP180;54434;50.096;20.082;2022-12-07T14:35:53;98214.60;;;3.00
67822;BMP180;54434;50.096;20.082;2022-12-07T14:38:38;98204.40;;;2.90
67822;BMP180;54434;50.096;20.082;2022-12-07T14:41:26;98204.80;;;2.90
67822;BMP180;54434;50.096;20.082;2022-12-07T14:44:22;98207.80;;;2.84
67822;BMP180;54434;50.096;20.082;2022-12-07T14:47:07;98214.00;;;2.80
67822;BMP180;54434;50.096;20.082;2022-12-07T14:50:06;98213.40;;;2.80
67822;BMP180;54434;50.096;20.082;2022-12-07T14:52:43;98218.80;;;2.80
67822;BMP180;54434;50.096;20.082;2022-12-07T14:55:40;98211.00;;;2.80
67822;BMP180;54434;50.096;20.082;2022-12-07T14:58:18;98210.80;;;2.80
67822;BMP180;54434;50.096;20.082;2022-12-07T15:00:54;98212.40;;;2.80
67822;BMP180;54434;50.096;20.082;2022-12-07T15:03:31;98210.40;;;2.80
67822;BMP180;54434;50.096;20.082;2022-12-07T15:06:15;98212.80;;;2.90
67822;BMP180;54434;50.096;20.082;2022-12-07T15:08:51;98203.40;;;2.88
67822;BMP180;54434;50.096;20.082;2022-12-07T15:11:27;98205.00;;;2.90
67822;BMP180;54434;50.096;20.082;2022-12-07T15:14:03;98208.80;;;2.90
67822;BMP180;54434;50.096;20.082;2022-12-07T15:16:46;98215.20;;;2.88
67822;BMP180;54434;50.096;20.082;2022-12-07T15:19:42;98215.00;;;2.86
67822;BMP180;54434;50.096;20.082;2022-12-07T15:22:18;98219.20;;;2.90
67822;BMP180;54434;50.096;20.082;2022-12-07T15:24:54;98223.40;;;2.90
67822;BMP180;54434;50.096;20.082;2022-12-07T15:27:31;98227.80;;;2.90
67822;BMP180;54434;50.096;20.082;2022-12-07T15:30:09;98225.40;;;2.90
67822;BMP180;54434;50.096;20.082;2022-12-07T15:32:45;98224.20;;;2.94
67822;BMP180;54434;50.096;20.082;2022-12-07T15:35:24;98234.20;;;3.00
67822;BMP180;54434;50.096;20.082;2022-12-07T15:38:00;98233.60;;;3.00
67822;BMP180;54434;50.096;20.082;2022-12-07T15:40:37;98231.80;;;3.00
67822;BMP180;54434;50.096;20.082;2022-12-07T15:43:14;98239.40;;;3.00
67822;BMP180;54434;50.096;20.082;2022-12-07T15:46:04;98242.40;;;3.00
67822;BMP180;54434;50.096;20.082;2022-12-07T15:48:40;98245.20;;;3.10